sensor_id;sensor_type;location;lat;lon;timestamp;pressure;altitude;pressure_sealevel;temperature;humidity
23166;BME280;11751;42.700;24.170;2024-01-25T00:00:33;94286.22;;;2.00;100.00
23166;BME280;11751;42.700;24.170;2024-01-25T00:02:58;94281.22;;;2.04;100.00
23166;BME280;11751;42.700;24.170;2024-01-25T00:05:24;94301.72;;;1.87;100.00
23166;BME280;11751;42.700;24.170;2024-01-25T00:07:49;94305.25;;;1.87;100.00
23166;BME280;11751;42.700;24.170;2024-01-25T00:10:17;94299.50;;;1.96;100.00
23166;BME280;11751;42.700;24.170;2024-01-25T00:12:42;94310.81;;;1.98;100.00
23166;BME280;11751;42.700;24.170;2024-01-25T00:15:12;94305.59;;;2.17;100.00
23166;BME280;11751;42.700;24.170;2024-01-25T00:17:37;94311.41;;;2.24;100.00
23166;BME280;11751;42.700;24.170;2024-01-25T00:20:04;94309.88;;;2.23;100.00
23166;BME280;11751;42.700;24.170;2024-01-25T00:22:30;94300.13;;;2.39;100.00
23166;BME280;11751;42.700;24.170;2024-01-25T00:24:55;94313.44;;;2.40;100.00
23166;BME280;11751;42.700;24.170;2024-01-25T00:27:21;94316.47;;;2.42;100.00
23166;BME280;11751;42.700;24.170;2024-01-25T00:29:46;94297.59;;;2.30;100.00
23166;BME280;11751;42.700;24.170;2024-01-25T00:32:11;94278.53;;;2.32;100.00
23166;BME280;11751;42.700;24.170;2024-01-25T00:34:37;94290.03;;;2.14;100.00
23166;BME280;11751;42.700;24.170;2024-01-25T00:37:03;94267.44;;;2.15;100.00
23166;BME280;11751;42.700;24.170;2024-01-25T00:39:28;94257.13;;;2.21;100.00
23166;BME280;11751;42.700;24.170;2024-01-25T00:42:01;94252.88;;;2.15;100.00
23166;BME280;11751;42.700;24.170;2024-01-25T00:44:28;94263.94;;;2.26;100.00
23166;BME280;11751;42.700;24.170;2024-01-25T00:46:54;94262.13;;;2.06;100.00
23166;BME280;11751;42.700;24.170;2024-01-25T00:49:20;94261.91;;;2.21;100.00
23166;BME280;11751;42.700;24.170;2024-01-25T00:51:47;94264.69;;;2.26;100.00
23166;BME280;11751;42.700;24.170;2024-01-25T00:54:14;94269.13;;;1.96;100.00
23166;BME280;11751;42.700;24.170;2024-01-25T00:56:40;94272.69;;;2.13;100.00
23166;BME280;11751;42.700;24.170;2024-01-25T00:59:05;94268.47;;;2.29;100.00
23166;BME280;11751;42.700;24.170;2024-01-25T01:01:31;94275.28;;;2.44;100.00
23166;BME280;11751;42.700;24.170;2024-01-25T01:03:58;94273.28;;;2.45;100.00
23166;BME280;11751;42.700;24.170;2024-01-25T01:06:24;94243.59;;;2.34;100.00
23166;BME280;11751;42.700;24.170;2024-01-25T01:08:50;94254.66;;;2.34;100.00
23166;BME280;11751;42.700;24.170;2024-01-25T01:11:16;94266.69;;;2.09;100.00
23166;BME280;11751;42.700;24.170;2024-01-25T01:13:42;94257.34;;;2.01;100.00
23166;BME280;11751;42.700;24.170;2024-01-25T01:16:07;94246.56;;;2.03;100.00
23166;BME280;11751;42.700;24.170;2024-01-25T01:18:33;94267.41;;;2.04;100.00
23166;BME280;11751;42.700;24.170;2024-01-25T01:20:58;94250.53;;;1.91;100.00
23166;BME280;11751;42.700;24.170;2024-01-25T01:23:23;94240.78;;;1.90;100.00
23166;BME280;11751;42.700;24.170;2024-01-25T01:25:49;94230.47;;;1.96;100.00
23166;BME280;11751;42.700;24.170;2024-01-25T01:28:14;94230.78;;;2.09;100.00
23166;BME280;11751;42.700;24.170;2024-01-25T01:30:40;94222.41;;;1.76;100.00
23166;BME280;11751;42.700;24.170;2024-01-25T01:33:08;94222.88;;;1.69;100.00
23166;BME280;11751;42.700;24.170;2024-01-25T01:35:33;94211.88;;;1.91;100.00
23166;BME280;11751;42.700;24.170;2024-01-25T01:37:59;94188.28;;;1.96;100.00
23166;BME280;11751;42.700;24.170;2024-01-25T01:40:24;94207.84;;;1.81;100.00
23166;BME280;11751;42.700;24.170;2024-01-25T01:42:50;94200.09;;;1.96;100.00
23166;BME280;11751;42.700;24.170;2024-01-25T01:45:15;94206.66;;;2.04;100.00
23166;BME280;11751;42.700;24.170;2024-01-25T01:47:40;94180.81;;;2.07;100.00
23166;BME280;11751;42.700;24.170;2024-01-25T01:50:06;94196.13;;;2.08;100.00
23166;BME280;11751;42.700;24.170;2024-01-25T01:52:32;94184.50;;;1.82;100.00
23166;BME280;11751;42.700;24.170;2024-01-25T01:54:58;94188.81;;;1.94;100.00
23166;BME280;11751;42.700;24.170;2024-01-25T01:57:24;94194.88;;;2.09;100.00
23166;BME280;11751;42.700;24.170;2024-01-25T01:59:50;94180.06;;;2.23;99.97
23166;BME280;11751;42.700;24.170;2024-01-25T02:02:15;94186.34;;;2.29;98.65
23166;BME280;11751;42.700;24.170;2024-01-25T02:04:43;94180.81;;;2.40;98.00
23166;BME280;11751;42.700;24.170;2024-01-25T02:07:08;94192.38;;;2.60;97.12
23166;BME280;11751;42.700;24.170;2024-01-25T02:09:34;94183.56;;;2.62;97.59
23166;BME280;11751;42.700;24.170;2024-01-25T02:12:03;94155.19;;;2.61;97.73
23166;BME280;11751;42.700;24.170;2024-01-25T02:14:30;94152.94;;;2.54;98.58
23166;BME280;11751;42.700;24.170;2024-01-25T02:16:56;94159.22;;;2.60;98.90
23166;BME280;11751;42.700;24.170;2024-01-25T02:19:21;94163.22;;;2.43;100.00
23166;BME280;11751;42.700;24.170;2024-01-25T02:21:47;94172.50;;;2.56;99.26
23166;BME280;11751;42.700;24.170;2024-01-25T02:24:13;94181.06;;;2.64;98.52
23166;BME280;11751;42.700;24.170;2024-01-25T02:26:38;94173.28;;;2.68;98.27
23166;BME280;11751;42.700;24.170;2024-01-25T02:29:04;94173.28;;;2.68;98.17
23166;BME280;11751;42.700;24.170;2024-01-25T02:31:30;94165.00;;;2.52;99.61
23166;BME280;11751;42.700;24.170;2024-01-25T02:33:55;94157.72;;;2.43;100.00
23166;BME280;11751;42.700;24.170;2024-01-25T02:36:24;94145.66;;;2.30;100.00
23166;BME280;11751;42.700;24.170;2024-01-25T02:38:50;94145.16;;;2.31;100.00
23166;BME280;11751;42.700;24.170;2024-01-25T02:41:15;94148.16;;;2.39;100.00
23166;BME280;11751;42.700;24.170;2024-01-25T02:43:41;94159.22;;;2.44;99.02
23166;BME280;11751;42.700;24.170;2024-01-25T02:46:07;94146.13;;;2.61;97.22
23166;BME280;11751;42.700;24.170;2024-01-25T02:48:34;94142.09;;;2.62;95.84
23166;BME280;11751;42.700;24.170;2024-01-25T02:50:59;94128.81;;;2.60;94.50
23166;BME280;11751;42.700;24.170;2024-01-25T02:53:25;94130.28;;;2.83;93.99
23166;BME280;11751;42.700;24.170;2024-01-25T02:55:50;94129.25;;;2.86;93.91
23166;BME280;11751;42.700;24.170;2024-01-25T02:58:16;94135.00;;;2.94;93.77
23166;BME280;11751;42.700;24.170;2024-01-25T03:00:41;94141.09;;;2.81;94.79
23166;BME280;11751;42.700;24.170;2024-01-25T03:03:06;94140.03;;;2.84;94.94
23166;BME280;11751;42.700;24.170;2024-01-25T03:05:32;94130.84;;;2.54;96.57
23166;BME280;11751;42.700;24.170;2024-01-25T03:07:58;94130.56;;;2.69;95.85
23166;BME280;11751;42.700;24.170;2024-01-25T03:10:23;94118.00;;;2.68;95.84
23166;BME280;11751;42.700;24.170;2024-01-25T03:12:48;94127.53;;;2.67;95.71
23166;BME280;11751;42.700;24.170;2024-01-25T03:15:14;94114.94;;;2.82;94.51
23166;BME280;11751;42.700;24.170;2024-01-25T03:17:40;94107.13;;;2.81;94.95
23166;BME280;11751;42.700;24.170;2024-01-25T03:20:06;94097.84;;;2.84;94.78
23166;BME280;11751;42.700;24.170;2024-01-25T03:22:31;94108.47;;;2.47;97.13
23166;BME280;11751;42.700;24.170;2024-01-25T03:24:57;94114.47;;;2.56;96.48
23166;BME280;11751;42.700;24.170;2024-01-25T03:27:22;94104.16;;;2.68;94.58
23166;BME280;11751;42.700;24.170;2024-01-25T03:29:47;94099.06;;;2.88;93.85
23166;BME280;11751;42.700;24.170;2024-01-25T03:32:13;94105.56;;;3.02;93.92
23166;BME280;11751;42.700;24.170;2024-01-25T03:34:39;94099.00;;;3.10;93.61
23166;BME280;11751;42.700;24.170;2024-01-25T03:37:04;94096.50;;;3.12;93.65
23166;BME280;11751;42.700;24.170;2024-01-25T03:39:30;94106.97;;;3.30;92.78
23166;BME280;11751;42.700;24.170;2024-01-25T03:41:55;94098.66;;;3.36;93.22
23166;BME280;11751;42.700;24.170;2024-01-25T03:44:20;94087.56;;;3.36;93.50
23166;BME280;11751;42.700;24.170;2024-01-25T03:46:46;94088.03;;;3.39;93.74
23166;BME280;11751;42.700;24.170;2024-01-25T03:49:11;94105.13;;;3.43;93.66
23166;BME280;11751;42.700;24.170;2024-01-25T03:51:37;94101.28;;;3.57;93.09
23166;BME280;11751;42.700;24.170;2024-01-25T03:54:02;94100.25;;;3.60;93.36
23166;BME280;11751;42.700;24.170;2024-01-25T03:56:28;94104.97;;;3.76;92.82
23166;BME280;11751;42.700;24.170;2024-01-25T03:58:53;94108.22;;;3.75;92.88
23166;BME280;11751;42.700;24.170;2024-01-25T04:01:18;94094.34;;;3.80;92.91
23166;BME280;11751;42.700;24.170;2024-01-25T04:03:44;94077.66;;;3.91;92.83
23166;BME280;11751;42.700;24.170;2024-01-25T04:06:09;94065.31;;;3.92;92.36
23166;BME280;11751;42.700;24.170;2024-01-25T04:08:35;94065.00;;;4.01;92.40
23166;BME280;11751;42.700;24.170;2024-01-25T04:11:00;94071.56;;;3.98;92.87
23166;BME280;11751;42.700;24.170;2024-01-25T04:13:26;94072.75;;;4.08;92.32
23166;BME280;11751;42.700;24.170;2024-01-25T04:15:51;94049.78;;;4.13;91.99
23166;BME280;11751;42.700;24.170;2024-01-25T04:18:16;94051.06;;;4.12;92.09
23166;BME280;11751;42.700;24.170;2024-01-25T04:20:43;94060.31;;;4.20;91.86
23166;BME280;11751;42.700;24.170;2024-01-25T04:23:09;94072.41;;;4.17;92.27
23166;BME280;11751;42.700;24.170;2024-01-25T04:25:34;94073.81;;;4.29;91.55
23166;BME280;11751;42.700;24.170;2024-01-25T04:28:00;94071.28;;;4.31;91.82
23166;BME280;11751;42.700;24.170;2024-01-25T04:30:25;94076.75;;;4.42;91.07
23166;BME280;11751;42.700;24.170;2024-01-25T04:32:51;94084.25;;;4.47;91.26
23166;BME280;11751;42.700;24.170;2024-01-25T04:35:16;94080.31;;;4.37;91.21
23166;BME280;11751;42.700;24.170;2024-01-25T04:37:42;94079.50;;;4.42;91.22
23166;BME280;11751;42.700;24.170;2024-01-25T04:40:07;94087.34;;;4.38;91.79
23166;BME280;11751;42.700;24.170;2024-01-25T04:42:33;94057.97;;;4.29;92.05
23166;BME280;11751;42.700;24.170;2024-01-25T04:44:58;94066.22;;;4.35;92.01
23166;BME280;11751;42.700;24.170;2024-01-25T04:47:24;94082.53;;;4.44;91.43
23166;BME280;11751;42.700;24.170;2024-01-25T04:49:49;94080.50;;;4.44;90.79
23166;BME280;11751;42.700;24.170;2024-01-25T04:52:14;94078.00;;;4.41;91.37
23166;BME280;11751;42.700;24.170;2024-01-25T04:54:40;94079.84;;;4.33;91.68
23166;BME280;11751;42.700;24.170;2024-01-25T04:57:05;94070.47;;;4.36;91.01
23166;BME280;11751;42.700;24.170;2024-01-25T04:59:35;94054.22;;;4.51;90.63
23166;BME280;11751;42.700;24.170;2024-01-25T05:02:00;94065.94;;;4.62;90.22
23166;BME280;11751;42.700;24.170;2024-01-25T05:04:28;94072.59;;;4.54;90.38
23166;BME280;11751;42.700;24.170;2024-01-25T05:06:54;94079.28;;;4.40;90.99
23166;BME280;11751;42.700;24.170;2024-01-25T05:09:20;94089.78;;;4.47;90.34
23166;BME280;11751;42.700;24.170;2024-01-25T05:11:45;94107.19;;;4.47;90.39
23166;BME280;11751;42.700;24.170;2024-01-25T05:14:11;94108.84;;;4.56;89.97
23166;BME280;11751;42.700;24.170;2024-01-25T05:16:36;94098.59;;;4.51;89.82
23166;BME280;11751;42.700;24.170;2024-01-25T05:19:02;94097.84;;;4.74;88.68
23166;BME280;11751;42.700;24.170;2024-01-25T05:21:27;94116.56;;;4.68;89.09
23166;BME280;11751;42.700;24.170;2024-01-25T05:23:53;94100.34;;;4.78;89.09
23166;BME280;11751;42.700;24.170;2024-01-25T05:26:18;94113.41;;;4.83;89.15
23166;BME280;11751;42.700;24.170;2024-01-25T05:28:44;94125.72;;;4.87;88.62
23166;BME280;11751;42.700;24.170;2024-01-25T05:31:10;94113.84;;;4.87;88.77
23166;BME280;11751;42.700;24.170;2024-01-25T05:33:40;94128.59;;;4.76;89.28
23166;BME280;11751;42.700;24.170;2024-01-25T05:36:06;94124.84;;;4.74;90.58
23166;BME280;11751;42.700;24.170;2024-01-25T05:38:32;94130.78;;;4.83;89.59
23166;BME280;11751;42.700;24.170;2024-01-25T05:40:58;94114.09;;;4.89;89.85
23166;BME280;11751;42.700;24.170;2024-01-25T05:43:23;94125.19;;;4.89;89.53
23166;BME280;11751;42.700;24.170;2024-01-25T05:45:49;94136.13;;;5.05;89.40
23166;BME280;11751;42.700;24.170;2024-01-25T05:48:15;94116.97;;;5.25;87.78
23166;BME280;11751;42.700;24.170;2024-01-25T05:50:40;94122.78;;;5.64;85.22
23166;BME280;11751;42.700;24.170;2024-01-25T05:53:06;94132.97;;;5.80;84.07
23166;BME280;11751;42.700;24.170;2024-01-25T05:55:31;94123.88;;;5.98;81.98
23166;BME280;11751;42.700;24.170;2024-01-25T05:57:57;94129.13;;;6.01;81.73
23166;BME280;11751;42.700;24.170;2024-01-25T06:00:22;94119.13;;;6.30;79.49
23166;BME280;11751;42.700;24.170;2024-01-25T06:02:48;94125.47;;;6.43;76.67
23166;BME280;11751;42.700;24.170;2024-01-25T06:05:14;94129.94;;;6.65;76.96
23166;BME280;11751;42.700;24.170;2024-01-25T06:07:39;94122.44;;;6.73;74.21
23166;BME280;11751;42.700;24.170;2024-01-25T06:10:06;94127.59;;;6.81;74.87
23166;BME280;11751;42.700;24.170;2024-01-25T06:12:31;94121.00;;;6.97;74.45
23166;BME280;11751;42.700;24.170;2024-01-25T06:14:57;94126.88;;;6.81;74.68
23166;BME280;11751;42.700;24.170;2024-01-25T06:17:22;94128.50;;;6.89;71.29
23166;BME280;11751;42.700;24.170;2024-01-25T06:19:47;94143.81;;;6.96;72.30
23166;BME280;11751;42.700;24.170;2024-01-25T06:22:13;94152.69;;;6.94;72.33
23166;BME280;11751;42.700;24.170;2024-01-25T06:24:38;94145.63;;;6.93;73.12
23166;BME280;11751;42.700;24.170;2024-01-25T06:27:04;94156.06;;;6.75;72.77
23166;BME280;11751;42.700;24.170;2024-01-25T06:29:29;94155.16;;;6.85;71.63
23166;BME280;11751;42.700;24.170;2024-01-25T06:31:55;94156.94;;;6.82;73.59
23166;BME280;11751;42.700;24.170;2024-01-25T06:34:20;94162.25;;;6.68;72.33
23166;BME280;11751;42.700;24.170;2024-01-25T06:36:46;94152.88;;;6.83;69.16
23166;BME280;11751;42.700;24.170;2024-01-25T06:39:11;94172.31;;;6.71;77.13
23166;BME280;11751;42.700;24.170;2024-01-25T06:41:36;94169.09;;;6.35;81.10
23166;BME280;11751;42.700;24.170;2024-01-25T06:44:02;94163.91;;;5.90;84.22
23166;BME280;11751;42.700;24.170;2024-01-25T06:46:28;94167.22;;;5.64;83.47
23166;BME280;11751;42.700;24.170;2024-01-25T06:48:54;94150.09;;;5.42;83.29
23166;BME280;11751;42.700;24.170;2024-01-25T06:51:19;94164.00;;;5.60;84.29
23166;BME280;11751;42.700;24.170;2024-01-25T06:53:44;94168.66;;;5.28;87.65
23166;BME280;11751;42.700;24.170;2024-01-25T06:56:10;94165.78;;;5.15;88.51
23166;BME280;11751;42.700;24.170;2024-01-25T06:58:35;94160.56;;;5.06;89.59
23166;BME280;11751;42.700;24.170;2024-01-25T07:01:01;94170.97;;;5.01;90.21
23166;BME280;11751;42.700;24.170;2024-01-25T07:03:27;94164.16;;;5.02;90.15
23166;BME280;11751;42.700;24.170;2024-01-25T07:05:52;94169.06;;;5.14;90.17
23166;BME280;11751;42.700;24.170;2024-01-25T07:08:18;94180.47;;;5.10;90.22
23166;BME280;11751;42.700;24.170;2024-01-25T07:10:44;94175.75;;;5.00;90.85
23166;BME280;11751;42.700;24.170;2024-01-25T07:13:09;94194.00;;;5.19;90.19
23166;BME280;11751;42.700;24.170;2024-01-25T07:15:35;94192.03;;;5.14;90.60
23166;BME280;11751;42.700;24.170;2024-01-25T07:18:00;94181.75;;;5.09;90.66
23166;BME280;11751;42.700;24.170;2024-01-25T07:20:25;94193.06;;;5.11;90.56
23166;BME280;11751;42.700;24.170;2024-01-25T07:22:51;94198.97;;;5.03;90.92
23166;BME280;11751;42.700;24.170;2024-01-25T07:25:16;94206.13;;;5.16;90.09
23166;BME280;11751;42.700;24.170;2024-01-25T07:27:45;94187.97;;;5.15;90.05
23166;BME280;11751;42.700;24.170;2024-01-25T07:30:11;94181.06;;;5.04;90.74
23166;BME280;11751;42.700;24.170;2024-01-25T07:32:37;94192.38;;;5.05;90.53
23166;BME280;11751;42.700;24.170;2024-01-25T07:35:04;94209.72;;;5.11;90.36
23166;BME280;11751;42.700;24.170;2024-01-25T07:37:29;94205.09;;;5.19;90.49
23166;BME280;11751;42.700;24.170;2024-01-25T07:39:55;94199.06;;;5.15;90.46
23166;BME280;11751;42.700;24.170;2024-01-25T07:42:20;94216.69;;;5.23;90.46
23166;BME280;11751;42.700;24.170;2024-01-25T07:44:45;94186.84;;;5.29;89.87
23166;BME280;11751;42.700;24.170;2024-01-25T07:47:11;94225.22;;;5.25;90.18
23166;BME280;11751;42.700;24.170;2024-01-25T07:49:37;94200.47;;;5.27;90.12
23166;BME280;11751;42.700;24.170;2024-01-25T07:52:03;94200.66;;;5.35;89.82
23166;BME280;11751;42.700;24.170;2024-01-25T07:54:28;94213.22;;;5.41;90.25
23166;BME280;11751;42.700;24.170;2024-01-25T07:56:53;94215.16;;;5.46;90.42
23166;BME280;11751;42.700;24.170;2024-01-25T07:59:19;94217.09;;;5.57;88.77
23166;BME280;11751;42.700;24.170;2024-01-25T08:01:44;94225.19;;;5.73;87.53
23166;BME280;11751;42.700;24.170;2024-01-25T08:04:09;94221.66;;;5.78;87.46
23166;BME280;11751;42.700;24.170;2024-01-25T08:06:35;94213.34;;;5.73;87.63
23166;BME280;11751;42.700;24.170;2024-01-25T08:09:01;94227.97;;;5.73;87.46
23166;BME280;11751;42.700;24.170;2024-01-25T08:11:26;94211.84;;;5.72;86.73
23166;BME280;11751;42.700;24.170;2024-01-25T08:13:51;94210.63;;;5.67;88.10
23166;BME280;11751;42.700;24.170;2024-01-25T08:16:17;94217.88;;;5.76;87.97
23166;BME280;11751;42.700;24.170;2024-01-25T08:18:49;94217.03;;;5.62;88.70
23166;BME280;11751;42.700;24.170;2024-01-25T08:21:14;94223.94;;;5.74;88.38
23166;BME280;11751;42.700;24.170;2024-01-25T08:23:40;94229.28;;;5.72;88.18
23166;BME280;11751;42.700;24.170;2024-01-25T08:26:06;94219.56;;;5.84;88.55
23166;BME280;11751;42.700;24.170;2024-01-25T08:28:35;94215.31;;;5.78;89.33
23166;BME280;11751;42.700;24.170;2024-01-25T08:31:01;94223.09;;;5.85;88.47
23166;BME280;11751;42.700;24.170;2024-01-25T08:33:27;94220.38;;;5.97;87.95
23166;BME280;11751;42.700;24.170;2024-01-25T08:35:52;94214.84;;;5.97;87.69
23166;BME280;11751;42.700;24.170;2024-01-25T08:38:18;94211.44;;;5.86;89.17
23166;BME280;11751;42.700;24.170;2024-01-25T08:40:43;94227.69;;;5.82;90.12
23166;BME280;11751;42.700;24.170;2024-01-25T08:43:09;94215.25;;;5.83;89.45
23166;BME280;11751;42.700;24.170;2024-01-25T08:45:34;94229.63;;;5.87;90.05
23166;BME280;11751;42.700;24.170;2024-01-25T08:48:00;94218.22;;;5.91;88.87
23166;BME280;11751;42.700;24.170;2024-01-25T08:50:25;94221.25;;;6.11;88.62
23166;BME280;11751;42.700;24.170;2024-01-25T08:52:51;94205.84;;;6.10;88.75
23166;BME280;11751;42.700;24.170;2024-01-25T08:55:16;94220.03;;;6.25;88.12
23166;BME280;11751;42.700;24.170;2024-01-25T08:57:42;94206.50;;;6.16;87.61
23166;BME280;11751;42.700;24.170;2024-01-25T09:00:08;94211.47;;;6.23;87.29
23166;BME280;11751;42.700;24.170;2024-01-25T09:02:37;94203.81;;;6.10;87.57
23166;BME280;11751;42.700;24.170;2024-01-25T09:05:06;94235.22;;;6.05;88.00
23166;BME280;11751;42.700;24.170;2024-01-25T09:07:32;94233.72;;;6.23;87.42
23166;BME280;11751;42.700;24.170;2024-01-25T09:09:58;94210.56;;;6.15;87.81
23166;BME280;11751;42.700;24.170;2024-01-25T09:12:23;94250.69;;;6.19;86.54
23166;BME280;11751;42.700;24.170;2024-01-25T09:14:49;94247.91;;;6.19;86.38
23166;BME280;11751;42.700;24.170;2024-01-25T09:17:14;94236.50;;;6.23;88.04
23166;BME280;11751;42.700;24.170;2024-01-25T09:19:46;94236.66;;;6.30;81.56
23166;BME280;11751;42.700;24.170;2024-01-25T09:22:12;94231.31;;;6.51;79.19
23166;BME280;11751;42.700;24.170;2024-01-25T09:24:37;94236.56;;;6.54;83.00
23166;BME280;11751;42.700;24.170;2024-01-25T09:27:05;94220.16;;;6.69;83.16
23166;BME280;11751;42.700;24.170;2024-01-25T09:29:30;94212.16;;;6.78;81.30
23166;BME280;11751;42.700;24.170;2024-01-25T09:31:56;94214.97;;;6.91;80.08
23166;BME280;11751;42.700;24.170;2024-01-25T09:34:21;94221.44;;;6.99;74.66
23166;BME280;11751;42.700;24.170;2024-01-25T09:36:47;94212.16;;;7.10;76.63
23166;BME280;11751;42.700;24.170;2024-01-25T09:39:12;94207.22;;;7.16;80.16
23166;BME280;11751;42.700;24.170;2024-01-25T09:41:39;94187.16;;;6.91;81.03
23166;BME280;11751;42.700;24.170;2024-01-25T09:44:07;94194.50;;;7.20;80.72
23166;BME280;11751;42.700;24.170;2024-01-25T09:46:33;94193.75;;;7.20;81.62
23166;BME280;11751;42.700;24.170;2024-01-25T09:48:59;94187.72;;;7.03;83.09
23166;BME280;11751;42.700;24.170;2024-01-25T09:51:25;94195.94;;;6.95;83.86
23166;BME280;11751;42.700;24.170;2024-01-25T09:53:54;94195.72;;;6.93;83.48
23166;BME280;11751;42.700;24.170;2024-01-25T09:56:20;94179.69;;;6.99;83.36
23166;BME280;11751;42.700;24.170;2024-01-25T09:58:48;94174.13;;;7.12;83.22
23166;BME280;11751;42.700;24.170;2024-01-25T10:01:15;94166.06;;;6.96;84.29
23166;BME280;11751;42.700;24.170;2024-01-25T10:03:49;94158.75;;;6.80;84.91
23166;BME280;11751;42.700;24.170;2024-01-25T10:06:16;94169.31;;;6.69;86.38
23166;BME280;11751;42.700;24.170;2024-01-25T10:08:42;94175.69;;;6.51;87.18
23166;BME280;11751;42.700;24.170;2024-01-25T10:11:08;94148.22;;;6.60;86.60
23166;BME280;11751;42.700;24.170;2024-01-25T10:13:46;94147.09;;;6.50;87.22
23166;BME280;11751;42.700;24.170;2024-01-25T10:16:17;94161.66;;;6.56;86.19
23166;BME280;11751;42.700;24.170;2024-01-25T10:18:44;94135.91;;;6.56;86.31
23166;BME280;11751;42.700;24.170;2024-01-25T10:21:14;94131.44;;;6.66;85.86
23166;BME280;11751;42.700;24.170;2024-01-25T10:23:40;94135.25;;;6.63;85.81
23166;BME280;11751;42.700;24.170;2024-01-25T10:26:09;94153.78;;;6.60;86.09
23166;BME280;11751;42.700;24.170;2024-01-25T10:28:34;94137.88;;;6.74;86.04
23166;BME280;11751;42.700;24.170;2024-01-25T10:31:02;94146.56;;;6.83;85.27
23166;BME280;11751;42.700;24.170;2024-01-25T10:33:30;94151.72;;;7.05;84.51
23166;BME280;11751;42.700;24.170;2024-01-25T10:35:56;94141.38;;;7.05;82.64
23166;BME280;11751;42.700;24.170;2024-01-25T10:38:29;94140.91;;;7.01;82.11
23166;BME280;11751;42.700;24.170;2024-01-25T10:40:57;94137.31;;;7.19;81.14
23166;BME280;11751;42.700;24.170;2024-01-25T10:43:23;94140.50;;;6.97;82.45
23166;BME280;11751;42.700;24.170;2024-01-25T10:45:49;94137.09;;;7.17;81.67
23166;BME280;11751;42.700;24.170;2024-01-25T10:48:19;94121.25;;;7.25;82.69
23166;BME280;11751;42.700;24.170;2024-01-25T10:50:45;94110.31;;;7.14;82.26
23166;BME280;11751;42.700;24.170;2024-01-25T10:53:12;94119.94;;;7.13;78.35
23166;BME280;11751;42.700;24.170;2024-01-25T10:55:37;94106.25;;;7.15;80.74
23166;BME280;11751;42.700;24.170;2024-01-25T10:58:03;94120.47;;;7.25;81.92
23166;BME280;11751;42.700;24.170;2024-01-25T11:00:31;94116.97;;;7.37;81.85
23166;BME280;11751;42.700;24.170;2024-01-25T11:02:56;94104.97;;;7.29;79.63
23166;BME280;11751;42.700;24.170;2024-01-25T11:05:23;94098.31;;;7.32;74.32
23166;BME280;11751;42.700;24.170;2024-01-25T11:07:49;94102.28;;;7.50;73.78
23166;BME280;11751;42.700;24.170;2024-01-25T11:10:17;94106.34;;;7.62;76.22
23166;BME280;11751;42.700;24.170;2024-01-25T11:12:58;94109.47;;;7.58;77.26
23166;BME280;11751;42.700;24.170;2024-01-25T11:15:35;94094.75;;;7.70;72.09
23166;BME280;11751;42.700;24.170;2024-01-25T11:18:02;94098.69;;;7.88;71.20
23166;BME280;11751;42.700;24.170;2024-01-25T11:20:29;94105.50;;;8.00;72.28
23166;BME280;11751;42.700;24.170;2024-01-25T11:25:27;94085.94;;;7.79;77.13
23166;BME280;11751;42.700;24.170;2024-01-25T11:27:53;94080.03;;;7.83;76.56
23166;BME280;11751;42.700;24.170;2024-01-25T11:30:19;94091.44;;;7.72;66.67
23166;BME280;11751;42.700;24.170;2024-01-25T11:32:49;94082.38;;;7.92;68.31
23166;BME280;11751;42.700;24.170;2024-01-25T11:35:15;94074.13;;;7.86;68.17
23166;BME280;11751;42.700;24.170;2024-01-25T11:37:47;94092.25;;;7.93;67.41
23166;BME280;11751;42.700;24.170;2024-01-25T11:40:14;94084.81;;;8.08;67.60
23166;BME280;11751;42.700;24.170;2024-01-25T11:42:41;94081.66;;;8.25;66.46
23166;BME280;11751;42.700;24.170;2024-01-25T11:45:09;94092.00;;;8.17;66.55
23166;BME280;11751;42.700;24.170;2024-01-25T11:47:35;94076.75;;;8.18;67.54
23166;BME280;11751;42.700;24.170;2024-01-25T11:50:02;94068.38;;;8.18;67.61
23166;BME280;11751;42.700;24.170;2024-01-25T11:52:28;94045.88;;;8.16;67.40
23166;BME280;11751;42.700;24.170;2024-01-25T11:54:53;94062.16;;;8.12;66.58
23166;BME280;11751;42.700;24.170;2024-01-25T11:57:19;94067.97;;;8.01;65.55
23166;BME280;11751;42.700;24.170;2024-01-25T11:59:45;94065.66;;;7.92;67.09
23166;BME280;11751;42.700;24.170;2024-01-25T12:02:12;94073.84;;;7.77;64.97
23166;BME280;11751;42.700;24.170;2024-01-25T12:04:39;94050.44;;;7.80;67.42
23166;BME280;11751;42.700;24.170;2024-01-25T12:07:05;94040.28;;;7.82;67.85
23166;BME280;11751;42.700;24.170;2024-01-25T12:09:31;94045.53;;;7.86;68.07
23166;BME280;11751;42.700;24.170;2024-01-25T12:11:56;94041.16;;;7.98;68.25
23166;BME280;11751;42.700;24.170;2024-01-25T12:14:24;94041.94;;;7.98;65.66
23166;BME280;11751;42.700;24.170;2024-01-25T12:16:49;94038.25;;;8.03;67.16
23166;BME280;11751;42.700;24.170;2024-01-25T12:19:15;94041.16;;;7.98;66.84
23166;BME280;11751;42.700;24.170;2024-01-25T12:21:44;94020.78;;;8.03;67.02
23166;BME280;11751;42.700;24.170;2024-01-25T12:24:10;94023.47;;;8.29;65.26
23166;BME280;11751;42.700;24.170;2024-01-25T12:26:35;94025.28;;;8.39;65.43
23166;BME280;11751;42.700;24.170;2024-01-25T12:29:01;94027.16;;;8.44;62.91
23166;BME280;11751;42.700;24.170;2024-01-25T12:31:28;94008.63;;;8.54;63.73
23166;BME280;11751;42.700;24.170;2024-01-25T12:33:54;94028.66;;;8.65;63.99
23166;BME280;11751;42.700;24.170;2024-01-25T12:36:19;94018.38;;;8.60;63.71
23166;BME280;11751;42.700;24.170;2024-01-25T12:38:44;94018.72;;;8.57;64.34
23166;BME280;11751;42.700;24.170;2024-01-25T12:41:10;94026.41;;;8.44;62.17
23166;BME280;11751;42.700;24.170;2024-01-25T12:43:36;94032.22;;;8.46;62.94
23166;BME280;11751;42.700;24.170;2024-01-25T12:46:01;94027.22;;;8.51;63.54
23166;BME280;11751;42.700;24.170;2024-01-25T12:48:26;94023.25;;;8.67;63.95
23166;BME280;11751;42.700;24.170;2024-01-25T12:50:52;94023.88;;;8.53;67.59
23166;BME280;11751;42.700;24.170;2024-01-25T12:53:17;94012.25;;;8.42;65.25